sensor_id;sensor_type;location;lat;lon;timestamp;P1;durP1;ratioP1;P2;durP2;ratioP2
49296;SDS011;35163;48.878;18.040;2023-03-08T00:02:05;39.53;;;17.75;;
49296;SDS011;35163;48.878;18.040;2023-03-08T00:04:31;37.33;;;18.33;;
49296;SDS011;35163;48.878;18.040;2023-03-08T00:06:59;40.05;;;18.65;;
49296;SDS011;35163;48.878;18.040;2023-03-08T00:09:26;36.40;;;18.35;;
49296;SDS011;35163;48.878;18.040;2023-03-08T00:11:52;37.53;;;18.65;;
49296;SDS011;35163;48.878;18.040;2023-03-08T00:14:19;37.08;;;19.35;;
49296;SDS011;35163;48.878;18.040;2023-03-08T00:16:47;38.35;;;19.15;;
49296;SDS011;35163;48.878;18.040;2023-03-08T00:19:14;32.33;;;16.90;;
49296;SDS011;35163;48.878;18.040;2023-03-08T00:21:40;36.97;;;17.73;;
49296;SDS011;35163;48.878;18.040;2023-03-08T00:24:07;34.60;;;17.75;;
49296;SDS011;35163;48.878;18.040;2023-03-08T00:26:33;40.38;;;18.98;;
49296;SDS011;35163;48.878;18.040;2023-03-08T00:29:00;37.85;;;18.83;;
49296;SDS011;35163;48.878;18.040;2023-03-08T00:31:27;35.78;;;18.10;;
49296;SDS011;35163;48.878;18.040;2023-03-08T00:33:53;49.88;;;18.98;;
49296;SDS011;35163;48.878;18.040;2023-03-08T00:36:21;35.00;;;18.92;;
49296;SDS011;35163;48.878;18.040;2023-03-08T00:38:47;37.55;;;19.08;;
49296;SDS011;35163;48.878;18.040;2023-03-08T00:41:16;37.72;;;19.65;;
49296;SDS011;35163;48.878;18.040;2023-03-08T00:43:43;34.20;;;17.35;;
49296;SDS011;35163;48.878;18.040;2023-03-08T00:46:11;39.88;;;20.83;;
49296;SDS011;35163;48.878;18.040;2023-03-08T00:48:39;38.55;;;19.33;;
49296;SDS011;35163;48.878;18.040;2023-03-08T00:51:06;39.53;;;18.65;;
49296;SDS011;35163;48.878;18.040;2023-03-08T00:53:34;40.28;;;18.85;;
49296;SDS011;35163;48.878;18.040;2023-03-08T00:56:00;34.13;;;18.40;;
49296;SDS011;35163;48.878;18.040;2023-03-08T00:58:27;40.47;;;19.73;;
49296;SDS011;35163;48.878;18.040;2023-03-08T01:00:55;38.50;;;19.92;;
49296;SDS011;35163;48.878;18.040;2023-03-08T01:03:22;36.90;;;18.20;;
49296;SDS011;35163;48.878;18.040;2023-03-08T01:05:51;40.17;;;19.25;;
49296;SDS011;35163;48.878;18.040;2023-03-08T01:08:20;41.20;;;21.02;;
49296;SDS011;35163;48.878;18.040;2023-03-08T01:10:52;42.70;;;19.35;;
49296;SDS011;35163;48.878;18.040;2023-03-08T01:13:23;39.60;;;19.58;;
49296;SDS011;35163;48.878;18.040;2023-03-08T01:15:55;43.88;;;21.02;;
49296;SDS011;35163;48.878;18.040;2023-03-08T01:18:21;41.72;;;19.65;;
49296;SDS011;35163;48.878;18.040;2023-03-08T01:20:55;40.47;;;20.70;;
49296;SDS011;35163;48.878;18.040;2023-03-08T01:23:26;40.88;;;19.08;;
49296;SDS011;35163;48.878;18.040;2023-03-08T01:26:03;41.47;;;20.73;;
49296;SDS011;35163;48.878;18.040;2023-03-08T01:28:32;42.55;;;20.60;;
49296;SDS011;35163;48.878;18.040;2023-03-08T01:31:03;40.38;;;20.08;;
49296;SDS011;35163;48.878;18.040;2023-03-08T01:33:34;40.88;;;21.38;;
49296;SDS011;35163;48.878;18.040;2023-03-08T01:36:02;39.88;;;19.92;;
49296;SDS011;35163;48.878;18.040;2023-03-08T01:38:30;39.35;;;20.23;;
49296;SDS011;35163;48.878;18.040;2023-03-08T01:40:57;46.50;;;20.13;;
49296;SDS011;35163;48.878;18.040;2023-03-08T01:43:29;41.25;;;20.55;;
49296;SDS011;35163;48.878;18.040;2023-03-08T01:48:32;40.92;;;19.60;;
49296;SDS011;35163;48.878;18.040;2023-03-08T01:51:03;44.42;;;20.48;;
49296;SDS011;35163;48.878;18.040;2023-03-08T01:53:33;40.50;;;20.08;;
49296;SDS011;35163;48.878;18.040;2023-03-08T01:56:03;38.15;;;20.33;;
49296;SDS011;35163;48.878;18.040;2023-03-08T01:58:34;41.78;;;20.15;;
49296;SDS011;35163;48.878;18.040;2023-03-08T02:01:01;38.30;;;19.48;;
49296;SDS011;35163;48.878;18.040;2023-03-08T02:03:27;43.97;;;20.85;;
49296;SDS011;35163;48.878;18.040;2023-03-08T02:05:54;35.85;;;20.23;;
49296;SDS011;35163;48.878;18.040;2023-03-08T02:08:21;42.97;;;21.25;;
49296;SDS011;35163;48.878;18.040;2023-03-08T02:10:49;40.25;;;20.98;;
49296;SDS011;35163;48.878;18.040;2023-03-08T02:13:16;44.28;;;20.23;;
49296;SDS011;35163;48.878;18.040;2023-03-08T02:15:45;40.83;;;20.00;;
49296;SDS011;35163;48.878;18.040;2023-03-08T02:18:12;41.33;;;19.85;;
49296;SDS011;35163;48.878;18.040;2023-03-08T02:20:39;42.63;;;18.30;;
49296;SDS011;35163;48.878;18.040;2023-03-08T02:23:11;43.35;;;20.48;;
49296;SDS011;35163;48.878;18.040;2023-03-08T02:25:41;39.92;;;19.45;;
49296;SDS011;35163;48.878;18.040;2023-03-08T02:28:18;37.25;;;19.30;;
49296;SDS011;35163;48.878;18.040;2023-03-08T02:30:46;42.30;;;20.27;;
49296;SDS011;35163;48.878;18.040;2023-03-08T02:33:13;39.55;;;20.70;;
49296;SDS011;35163;48.878;18.040;2023-03-08T02:35:39;40.13;;;20.05;;
49296;SDS011;35163;48.878;18.040;2023-03-08T02:38:08;41.22;;;20.00;;
49296;SDS011;35163;48.878;18.040;2023-03-08T02:40:36;43.30;;;21.20;;
49296;SDS011;35163;48.878;18.040;2023-03-08T02:43:04;42.50;;;20.70;;
49296;SDS011;35163;48.878;18.040;2023-03-08T02:45:31;43.25;;;20.77;;
49296;SDS011;35163;48.878;18.040;2023-03-08T02:47:59;43.40;;;22.00;;
49296;SDS011;35163;48.878;18.040;2023-03-08T02:50:27;43.35;;;20.25;;
49296;SDS011;35163;48.878;18.040;2023-03-08T02:52:53;39.53;;;19.77;;
49296;SDS011;35163;48.878;18.040;2023-03-08T02:55:20;41.88;;;20.83;;
49296;SDS011;35163;48.878;18.040;2023-03-08T02:57:47;41.15;;;20.75;;
49296;SDS011;35163;48.878;18.040;2023-03-08T03:00:13;42.72;;;20.83;;
49296;SDS011;35163;48.878;18.040;2023-03-08T03:02:40;37.17;;;20.25;;
49296;SDS011;35163;48.878;18.040;2023-03-08T03:05:07;45.22;;;21.35;;
49296;SDS011;35163;48.878;18.040;2023-03-08T03:07:38;41.95;;;21.02;;
49296;SDS011;35163;48.878;18.040;2023-03-08T03:10:09;37.92;;;19.90;;
49296;SDS011;35163;48.878;18.040;2023-03-08T03:12:37;39.00;;;19.75;;
49296;SDS011;35163;48.878;18.040;2023-03-08T03:15:05;38.53;;;19.80;;
49296;SDS011;35163;48.878;18.040;2023-03-08T03:17:33;39.83;;;19.80;;
49296;SDS011;35163;48.878;18.040;2023-03-08T03:20:03;39.83;;;20.35;;
49296;SDS011;35163;48.878;18.040;2023-03-08T03:22:40;40.05;;;19.27;;
49296;SDS011;35163;48.878;18.040;2023-03-08T03:25:07;35.63;;;19.58;;
49296;SDS011;35163;48.878;18.040;2023-03-08T03:27:34;37.00;;;18.58;;
49296;SDS011;35163;48.878;18.040;2023-03-08T03:30:00;33.10;;;16.27;;
49296;SDS011;35163;48.878;18.040;2023-03-08T03:32:27;36.92;;;19.15;;
49296;SDS011;35163;48.878;18.040;2023-03-08T03:34:54;36.17;;;18.10;;
49296;SDS011;35163;48.878;18.040;2023-03-08T03:37:20;46.58;;;23.20;;
49296;SDS011;35163;48.878;18.040;2023-03-08T03:39:47;34.92;;;17.52;;
49296;SDS011;35163;48.878;18.040;2023-03-08T03:42:14;30.15;;;13.80;;
49296;SDS011;35163;48.878;18.040;2023-03-08T03:44:42;22.80;;;11.77;;
49296;SDS011;35163;48.878;18.040;2023-03-08T03:47:09;20.38;;;9.45;;
49296;SDS011;35163;48.878;18.040;2023-03-08T03:49:35;19.45;;;9.90;;
49296;SDS011;35163;48.878;18.040;2023-03-08T03:52:02;23.40;;;10.45;;
49296;SDS011;35163;48.878;18.040;2023-03-08T03:54:29;21.35;;;10.40;;
49296;SDS011;35163;48.878;18.040;2023-03-08T03:56:55;20.42;;;10.23;;
49296;SDS011;35163;48.878;18.040;2023-03-08T03:59:23;22.65;;;10.07;;
49296;SDS011;35163;48.878;18.040;2023-03-08T04:01:52;22.20;;;10.82;;
49296;SDS011;35163;48.878;18.040;2023-03-08T04:04:18;19.98;;;9.45;;
49296;SDS011;35163;48.878;18.040;2023-03-08T04:06:45;22.15;;;9.80;;
49296;SDS011;35163;48.878;18.040;2023-03-08T04:09:13;19.88;;;10.00;;
49296;SDS011;35163;48.878;18.040;2023-03-08T04:11:41;20.77;;;9.13;;
49296;SDS011;35163;48.878;18.040;2023-03-08T04:14:08;21.70;;;10.60;;
49296;SDS011;35163;48.878;18.040;2023-03-08T04:16:36;20.17;;;10.18;;
49296;SDS011;35163;48.878;18.040;2023-03-08T04:19:05;21.25;;;9.65;;
49296;SDS011;35163;48.878;18.040;2023-03-08T04:21:35;22.08;;;9.15;;
49296;SDS011;35163;48.878;18.040;2023-03-08T04:24:02;16.95;;;8.38;;
49296;SDS011;35163;48.878;18.040;2023-03-08T04:26:29;19.35;;;8.43;;
49296;SDS011;35163;48.878;18.040;2023-03-08T04:28:55;21.25;;;9.57;;
49296;SDS011;35163;48.878;18.040;2023-03-08T04:31:23;18.70;;;8.23;;
49296;SDS011;35163;48.878;18.040;2023-03-08T04:33:52;18.02;;;7.93;;
49296;SDS011;35163;48.878;18.040;2023-03-08T04:36:19;17.05;;;7.93;;
49296;SDS011;35163;48.878;18.040;2023-03-08T04:38:46;21.70;;;9.57;;
49296;SDS011;35163;48.878;18.040;2023-03-08T04:41:14;17.67;;;8.45;;
49296;SDS011;35163;48.878;18.040;2023-03-08T04:43:51;16.13;;;8.00;;
49296;SDS011;35163;48.878;18.040;2023-03-08T04:46:20;15.85;;;7.20;;
49296;SDS011;35163;48.878;18.040;2023-03-08T04:48:48;14.73;;;6.90;;
49296;SDS011;35163;48.878;18.040;2023-03-08T04:51:19;15.98;;;6.63;;
49296;SDS011;35163;48.878;18.040;2023-03-08T04:53:46;16.55;;;7.07;;
49296;SDS011;35163;48.878;18.040;2023-03-08T04:56:14;13.90;;;6.70;;
49296;SDS011;35163;48.878;18.040;2023-03-08T04:58:41;16.30;;;6.90;;
49296;SDS011;35163;48.878;18.040;2023-03-08T05:01:12;12.80;;;6.10;;
49296;SDS011;35163;48.878;18.040;2023-03-08T05:03:45;11.35;;;5.80;;
49296;SDS011;35163;48.878;18.040;2023-03-08T05:06:15;12.95;;;6.18;;
49296;SDS011;35163;48.878;18.040;2023-03-08T05:08:42;10.68;;;4.97;;
49296;SDS011;35163;48.878;18.040;2023-03-08T05:11:09;11.63;;;5.75;;
49296;SDS011;35163;48.878;18.040;2023-03-08T05:13:42;13.07;;;5.55;;
49296;SDS011;35163;48.878;18.040;2023-03-08T05:16:09;13.32;;;6.43;;
49296;SDS011;35163;48.878;18.040;2023-03-08T05:18:36;18.88;;;5.97;;
49296;SDS011;35163;48.878;18.040;2023-03-08T05:21:03;13.93;;;6.75;;
49296;SDS011;35163;48.878;18.040;2023-03-08T05:23:32;14.05;;;7.07;;
49296;SDS011;35163;48.878;18.040;2023-03-08T05:26:00;14.70;;;6.78;;
49296;SDS011;35163;48.878;18.040;2023-03-08T05:28:29;14.75;;;7.63;;
49296;SDS011;35163;48.878;18.040;2023-03-08T05:31:04;18.65;;;8.05;;
49296;SDS011;35163;48.878;18.040;2023-03-08T05:33:33;17.48;;;8.07;;
49296;SDS011;35163;48.878;18.040;2023-03-08T05:36:01;14.82;;;7.47;;
49296;SDS011;35163;48.878;18.040;2023-03-08T05:38:28;18.23;;;8.32;;
49296;SDS011;35163;48.878;18.040;2023-03-08T05:40:58;17.70;;;8.02;;
49296;SDS011;35163;48.878;18.040;2023-03-08T05:43:25;18.60;;;8.43;;
49296;SDS011;35163;48.878;18.040;2023-03-08T05:45:53;20.33;;;8.35;;
49296;SDS011;35163;48.878;18.040;2023-03-08T05:48:23;21.25;;;9.35;;
49296;SDS011;35163;48.878;18.040;2023-03-08T05:50:50;20.08;;;8.90;;
49296;SDS011;35163;48.878;18.040;2023-03-08T05:53:17;20.58;;;9.77;;
49296;SDS011;35163;48.878;18.040;2023-03-08T05:55:44;23.05;;;10.15;;
49296;SDS011;35163;48.878;18.040;2023-03-08T05:58:10;20.90;;;8.80;;
49296;SDS011;35163;48.878;18.040;2023-03-08T06:00:40;18.80;;;9.00;;
49296;SDS011;35163;48.878;18.040;2023-03-08T06:03:07;18.42;;;9.13;;
49296;SDS011;35163;48.878;18.040;2023-03-08T06:05:33;23.58;;;10.52;;
49296;SDS011;35163;48.878;18.040;2023-03-08T06:08:00;21.40;;;10.45;;
49296;SDS011;35163;48.878;18.040;2023-03-08T06:10:26;21.88;;;9.88;;
49296;SDS011;35163;48.878;18.040;2023-03-08T06:12:53;18.80;;;9.38;;
49296;SDS011;35163;48.878;18.040;2023-03-08T06:15:20;20.63;;;9.55;;
49296;SDS011;35163;48.878;18.040;2023-03-08T06:17:46;27.77;;;10.15;;
49296;SDS011;35163;48.878;18.040;2023-03-08T06:20:13;23.20;;;9.93;;
49296;SDS011;35163;48.878;18.040;2023-03-08T06:22:41;21.90;;;9.65;;
49296;SDS011;35163;48.878;18.040;2023-03-08T06:25:08;19.15;;;9.57;;
49296;SDS011;35163;48.878;18.040;2023-03-08T06:27:35;21.15;;;9.18;;
49296;SDS011;35163;48.878;18.040;2023-03-08T06:30:02;22.02;;;9.15;;
49296;SDS011;35163;48.878;18.040;2023-03-08T06:32:28;20.73;;;9.57;;
49296;SDS011;35163;48.878;18.040;2023-03-08T06:34:55;25.23;;;10.23;;
49296;SDS011;35163;48.878;18.040;2023-03-08T06:37:22;26.00;;;9.35;;
49296;SDS011;35163;48.878;18.040;2023-03-08T06:39:48;31.67;;;9.60;;
49296;SDS011;35163;48.878;18.040;2023-03-08T06:42:15;20.27;;;10.32;;
49296;SDS011;35163;48.878;18.040;2023-03-08T06:44:41;17.85;;;9.00;;
49296;SDS011;35163;48.878;18.040;2023-03-08T06:47:09;22.75;;;9.80;;
49296;SDS011;35163;48.878;18.040;2023-03-08T06:49:36;18.00;;;9.32;;
49296;SDS011;35163;48.878;18.040;2023-03-08T06:52:02;16.02;;;8.57;;
49296;SDS011;35163;48.878;18.040;2023-03-08T06:54:29;23.55;;;9.82;;
49296;SDS011;35163;48.878;18.040;2023-03-08T06:56:56;26.45;;;9.45;;
49296;SDS011;35163;48.878;18.040;2023-03-08T06:59:22;19.40;;;9.73;;
49296;SDS011;35163;48.878;18.040;2023-03-08T07:01:49;18.98;;;9.80;;
49296;SDS011;35163;48.878;18.040;2023-03-08T07:04:15;18.35;;;9.32;;
49296;SDS011;35163;48.878;18.040;2023-03-08T07:06:43;31.63;;;14.30;;
49296;SDS011;35163;48.878;18.040;2023-03-08T07:09:10;20.83;;;10.55;;
49296;SDS011;35163;48.878;18.040;2023-03-08T07:11:38;20.20;;;9.70;;
49296;SDS011;35163;48.878;18.040;2023-03-08T07:14:05;21.27;;;9.40;;
49296;SDS011;35163;48.878;18.040;2023-03-08T07:16:31;25.40;;;10.95;;
49296;SDS011;35163;48.878;18.040;2023-03-08T07:18:59;21.38;;;9.48;;
49296;SDS011;35163;48.878;18.040;2023-03-08T07:21:27;20.73;;;9.63;;
49296;SDS011;35163;48.878;18.040;2023-03-08T07:23:53;21.23;;;10.57;;
49296;SDS011;35163;48.878;18.040;2023-03-08T07:26:20;18.85;;;9.50;;
49296;SDS011;35163;48.878;18.040;2023-03-08T07:28:47;24.50;;;10.23;;
49296;SDS011;35163;48.878;18.040;2023-03-08T07:31:15;20.33;;;10.52;;
49296;SDS011;35163;48.878;18.040;2023-03-08T07:33:42;19.27;;;9.35;;
49296;SDS011;35163;48.878;18.040;2023-03-08T07:36:09;25.02;;;10.38;;
49296;SDS011;35163;48.878;18.040;2023-03-08T07:38:36;19.90;;;10.05;;
49296;SDS011;35163;48.878;18.040;2023-03-08T07:41:02;17.55;;;9.13;;
49296;SDS011;35163;48.878;18.040;2023-03-08T07:43:29;22.48;;;10.25;;
49296;SDS011;35163;48.878;18.040;2023-03-08T07:45:58;19.45;;;8.70;;
49296;SDS011;35163;48.878;18.040;2023-03-08T07:48:26;21.52;;;8.73;;
49296;SDS011;35163;48.878;18.040;2023-03-08T07:50:54;18.85;;;9.25;;
49296;SDS011;35163;48.878;18.040;2023-03-08T07:53:20;17.75;;;8.95;;
49296;SDS011;35163;48.878;18.040;2023-03-08T07:55:47;18.15;;;9.07;;
49296;SDS011;35163;48.878;18.040;2023-03-08T07:58:13;19.77;;;9.15;;
49296;SDS011;35163;48.878;18.040;2023-03-08T08:00:40;17.08;;;8.93;;
49296;SDS011;35163;48.878;18.040;2023-03-08T08:03:07;16.38;;;8.95;;
49296;SDS011;35163;48.878;18.040;2023-03-08T08:05:34;20.35;;;8.90;;
49296;SDS011;35163;48.878;18.040;2023-03-08T08:08:01;25.75;;;9.82;;
49296;SDS011;35163;48.878;18.040;2023-03-08T08:10:28;20.40;;;10.43;;
49296;SDS011;35163;48.878;18.040;2023-03-08T08:12:55;18.30;;;9.23;;
49296;SDS011;35163;48.878;18.040;2023-03-08T08:15:21;19.77;;;9.35;;
49296;SDS011;35163;48.878;18.040;2023-03-08T08:17:51;20.05;;;9.43;;
49296;SDS011;35163;48.878;18.040;2023-03-08T08:20:17;17.48;;;8.43;;
49296;SDS011;35163;48.878;18.040;2023-03-08T08:22:44;19.65;;;8.93;;
49296;SDS011;35163;48.878;18.040;2023-03-08T08:25:11;16.90;;;8.70;;
49296;SDS011;35163;48.878;18.040;2023-03-08T08:27:38;20.25;;;8.98;;
49296;SDS011;35163;48.878;18.040;2023-03-08T08:30:04;19.80;;;8.93;;
49296;SDS011;35163;48.878;18.040;2023-03-08T08:32:35;16.38;;;8.35;;
49296;SDS011;35163;48.878;18.040;2023-03-08T08:35:01;16.15;;;8.55;;
49296;SDS011;35163;48.878;18.040;2023-03-08T08:37:28;19.52;;;8.05;;
49296;SDS011;35163;48.878;18.040;2023-03-08T08:39:56;20.33;;;8.60;;
49296;SDS011;35163;48.878;18.040;2023-03-08T08:42:24;17.45;;;8.55;;
49296;SDS011;35163;48.878;18.040;2023-03-08T08:44:51;16.58;;;8.63;;
49296;SDS011;35163;48.878;18.040;2023-03-08T08:47:18;17.65;;;8.13;;
49296;SDS011;35163;48.878;18.040;2023-03-08T08:49:44;15.10;;;8.40;;
49296;SDS011;35163;48.878;18.040;2023-03-08T08:52:11;15.15;;;8.10;;
49296;SDS011;35163;48.878;18.040;2023-03-08T08:54:37;17.23;;;8.32;;
49296;SDS011;35163;48.878;18.040;2023-03-08T08:57:05;15.48;;;8.35;;
49296;SDS011;35163;48.878;18.040;2023-03-08T08:59:34;17.45;;;8.35;;
49296;SDS011;35163;48.878;18.040;2023-03-08T09:02:01;17.08;;;7.97;;
49296;SDS011;35163;48.878;18.040;2023-03-08T09:04:27;18.10;;;8.25;;
49296;SDS011;35163;48.878;18.040;2023-03-08T09:06:54;22.58;;;10.68;;
49296;SDS011;35163;48.878;18.040;2023-03-08T09:09:21;16.23;;;8.60;;
49296;SDS011;35163;48.878;18.040;2023-03-08T09:11:48;17.70;;;9.77;;
49296;SDS011;35163;48.878;18.040;2023-03-08T09:14:20;17.02;;;8.35;;
49296;SDS011;35163;48.878;18.040;2023-03-08T09:16:47;17.60;;;8.50;;
49296;SDS011;35163;48.878;18.040;2023-03-08T09:19:14;15.10;;;8.00;;
49296;SDS011;35163;48.878;18.040;2023-03-08T09:21:40;14.85;;;7.85;;
49296;SDS011;35163;48.878;18.040;2023-03-08T09:24:07;14.57;;;7.22;;
49296;SDS011;35163;48.878;18.040;2023-03-08T09:26:35;16.33;;;7.82;;
49296;SDS011;35163;48.878;18.040;2023-03-08T09:29:02;15.50;;;7.85;;
49296;SDS011;35163;48.878;18.040;2023-03-08T09:31:33;13.32;;;6.47;;
49296;SDS011;35163;48.878;18.040;2023-03-08T09:34:02;15.68;;;7.85;;
49296;SDS011;35163;48.878;18.040;2023-03-08T09:36:37;14.27;;;7.07;;
49296;SDS011;35163;48.878;18.040;2023-03-08T09:39:05;13.93;;;8.02;;
49296;SDS011;35163;48.878;18.040;2023-03-08T09:49:45;14.95;;;6.95;;
49296;SDS011;35163;48.878;18.040;2023-03-08T09:52:16;13.40;;;7.22;;
49296;SDS011;35163;48.878;18.040;2023-03-08T09:54:51;18.13;;;6.70;;
49296;SDS011;35163;48.878;18.040;2023-03-08T09:57:21;18.42;;;7.93;;
49296;SDS011;35163;48.878;18.040;2023-03-08T09:59:54;17.58;;;7.53;;
49296;SDS011;35163;48.878;18.040;2023-03-08T10:13:18;15.93;;;7.70;;
49296;SDS011;35163;48.878;18.040;2023-03-08T10:15:44;19.63;;;6.75;;
49296;SDS011;35163;48.878;18.040;2023-03-08T10:18:25;11.60;;;6.40;;
49296;SDS011;35163;48.878;18.040;2023-03-08T10:20:57;13.32;;;7.03;;
49296;SDS011;35163;48.878;18.040;2023-03-08T10:23:30;15.70;;;8.57;;
49296;SDS011;35163;48.878;18.040;2023-03-08T10:26:00;14.07;;;7.45;;
49296;SDS011;35163;48.878;18.040;2023-03-08T10:28:30;14.55;;;6.65;;
49296;SDS011;35163;48.878;18.040;2023-03-08T10:30:57;13.88;;;7.32;;
49296;SDS011;35163;48.878;18.040;2023-03-08T10:33:30;14.13;;;6.75;;
49296;SDS011;35163;48.878;18.040;2023-03-08T10:36:00;13.30;;;6.60;;
49296;SDS011;35163;48.878;18.040;2023-03-08T10:38:35;12.20;;;6.20;;
49296;SDS011;35163;48.878;18.040;2023-03-08T10:41:03;14.25;;;6.40;;
49296;SDS011;35163;48.878;18.040;2023-03-08T10:43:44;13.02;;;6.90;;
49296;SDS011;35163;48.878;18.040;2023-03-08T10:46:14;12.70;;;6.13;;
49296;SDS011;35163;48.878;18.040;2023-03-08T10:48:43;14.65;;;5.68;;
49296;SDS011;35163;48.878;18.040;2023-03-08T10:51:24;12.95;;;6.68;;
49296;SDS011;35163;48.878;18.040;2023-03-08T10:53:52;13.70;;;6.45;;
49296;SDS011;35163;48.878;18.040;2023-03-08T10:56:39;13.10;;;6.75;;
49296;SDS011;35163;48.878;18.040;2023-03-08T10:59:17;13.38;;;6.47;;
49296;SDS011;35163;48.878;18.040;2023-03-08T11:01:59;17.05;;;9.60;;
49296;SDS011;35163;48.878;18.040;2023-03-08T11:04:29;21.33;;;8.57;;
49296;SDS011;35163;48.878;18.040;2023-03-08T11:06:56;15.82;;;6.07;;
49296;SDS011;35163;48.878;18.040;2023-03-08T11:09:28;20.20;;;7.72;;
49296;SDS011;35163;48.878;18.040;2023-03-08T11:11:56;11.40;;;6.00;;
49296;SDS011;35163;48.878;18.040;2023-03-08T11:14:24;13.10;;;5.80;;
49296;SDS011;35163;48.878;18.040;2023-03-08T11:25:34;10.95;;;5.60;;
49296;SDS011;35163;48.878;18.040;2023-03-08T11:28:44;10.88;;;5.28;;
49296;SDS011;35163;48.878;18.040;2023-03-08T11:36:21;12.10;;;5.93;;
49296;SDS011;35163;48.878;18.040;2023-03-08T11:39:21;13.90;;;6.10;;
49296;SDS011;35163;48.878;18.040;2023-03-08T11:44:30;13.10;;;6.00;;
49296;SDS011;35163;48.878;18.040;2023-03-08T11:55:04;13.05;;;6.20;;
49296;SDS011;35163;48.878;18.040;2023-03-08T11:57:39;12.10;;;5.50;;
49296;SDS011;35163;48.878;18.040;2023-03-08T12:00:13;14.57;;;7.20;;
49296;SDS011;35163;48.878;18.040;2023-03-08T12:02:44;14.10;;;6.80;;
49296;SDS011;35163;48.878;18.040;2023-03-08T12:07:54;13.63;;;6.97;;
49296;SDS011;35163;48.878;18.040;2023-03-08T12:10:47;16.20;;;8.40;;
49296;SDS011;35163;48.878;18.040;2023-03-08T12:13:36;12.20;;;6.32;;
49296;SDS011;35163;48.878;18.040;2023-03-08T12:25:00;13.13;;;6.13;;
49296;SDS011;35163;48.878;18.040;2023-03-08T12:27:50;12.48;;;5.65;;
49296;SDS011;35163;48.878;18.040;2023-03-08T12:30:24;11.63;;;5.70;;
49296;SDS011;35163;48.878;18.040;2023-03-08T12:33:03;16.60;;;5.78;;
49296;SDS011;35163;48.878;18.040;2023-03-08T12:35:37;10.25;;;5.22;;
49296;SDS011;35163;48.878;18.040;2023-03-08T12:38:32;12.90;;;5.72;;
49296;SDS011;35163;48.878;18.040;2023-03-08T12:41:22;13.25;;;5.10;;
49296;SDS011;35163;48.878;18.040;2023-03-08T12:44:36;10.63;;;5.10;;
49296;SDS011;35163;48.878;18.040;2023-03-08T12:46:55;12.48;;;5.10;;
49296;SDS011;35163;48.878;18.040;2023-03-08T12:49:36;9.60;;;4.75;;
49296;SDS011;35163;48.878;18.040;2023-03-08T12:52:22;12.40;;;4.82;;
49296;SDS011;35163;48.878;18.040;2023-03-08T12:55:02;12.63;;;4.85;;
49296;SDS011;35163;48.878;18.040;2023-03-08T12:57:32;11.88;;;6.03;;
49296;SDS011;35163;48.878;18.040;2023-03-08T13:00:06;10.38;;;5.47;;
49296;SDS011;35163;48.878;18.040;2023-03-08T13:02:45;12.88;;;6.03;;
49296;SDS011;35163;48.878;18.040;2023-03-08T13:10:32;14.05;;;6.55;;
49296;SDS011;35163;48.878;18.040;2023-03-08T13:18:43;13.15;;;6.78;;
49296;SDS011;35163;48.878;18.040;2023-03-08T13:21:31;18.73;;;7.13;;
49296;SDS011;35163;48.878;18.040;2023-03-08T13:24:14;15.35;;;7.20;;
49296;SDS011;35163;48.878;18.040;2023-03-08T13:26:51;14.60;;;7.57;;
49296;SDS011;35163;48.878;18.040;2023-03-08T13:29:27;16.15;;;8.05;;
49296;SDS011;35163;48.878;18.040;2023-03-08T13:31:56;16.25;;;8.25;;
49296;SDS011;35163;48.878;18.040;2023-03-08T13:34:25;17.27;;;8.00;;
49296;SDS011;35163;48.878;18.040;2023-03-08T13:36:53;16.73;;;8.43;;
49296;SDS011;35163;48.878;18.040;2023-03-08T13:39:22;15.88;;;7.18;;
49296;SDS011;35163;48.878;18.040;2023-03-08T13:42:03;14.48;;;7.47;;
49296;SDS011;35163;48.878;18.040;2023-03-08T13:44:32;14.75;;;7.20;;
49296;SDS011;35163;48.878;18.040;2023-03-08T13:47:00;14.93;;;7.43;;
49296;SDS011;35163;48.878;18.040;2023-03-08T13:49:46;17.25;;;7.63;;
49296;SDS011;35163;48.878;18.040;2023-03-08T13:52:18;16.83;;;7.05;;
49296;SDS011;35163;48.878;18.040;2023-03-08T13:54:49;15.07;;;7.75;;
49296;SDS011;35163;48.878;18.040;2023-03-08T13:57:22;14.30;;;7.72;;
49296;SDS011;35163;48.878;18.040;2023-03-08T13:59:53;21.20;;;9.23;;
49296;SDS011;35163;48.878;18.040;2023-03-08T14:02:29;17.50;;;9.15;;
49296;SDS011;35163;48.878;18.040;2023-03-08T14:04:57;15.23;;;8.32;;
49296;SDS011;35163;48.878;18.040;2023-03-08T14:07:28;17.52;;;8.70;;
49296;SDS011;35163;48.878;18.040;2023-03-08T14:09:57;18.08;;;9.32;;
49296;SDS011;35163;48.878;18.040;2023-03-08T14:12:28;14.55;;;7.88;;
49296;SDS011;35163;48.878;18.040;2023-03-08T14:14:57;16.00;;;8.75;;
49296;SDS011;35163;48.878;18.040;2023-03-08T14:17:28;17.23;;;8.80;;
49296;SDS011;35163;48.878;18.040;2023-03-08T14:20:01;17.52;;;9.38;;
49296;SDS011;35163;48.878;18.040;2023-03-08T14:22:32;21.10;;;10.05;;
49296;SDS011;35163;48.878;18.040;2023-03-08T14:25:05;19.70;;;9.68;;
49296;SDS011;35163;48.878;18.040;2023-03-08T14:27:45;17.80;;;9.18;;
49296;SDS011;35163;48.878;18.040;2023-03-08T14:32:38;19.23;;;9.57;;
49296;SDS011;35163;48.878;18.040;2023-03-08T14:35:14;17.85;;;8.93;;
49296;SDS011;35163;48.878;18.040;2023-03-08T14:37:48;17.40;;;8.82;;
49296;SDS011;35163;48.878;18.040;2023-03-08T14:43:05;19.73;;;9.27;;
49296;SDS011;35163;48.878;18.040;2023-03-08T14:45:35;19.13;;;9.10;;
49296;SDS011;35163;48.878;18.040;2023-03-08T14:50:50;16.60;;;9.25;;
49296;SDS011;35163;48.878;18.040;2023-03-08T14:53:23;21.02;;;9.73;;
49296;SDS011;35163;48.878;18.040;2023-03-08T14:56:06;21.13;;;9.35;;
49296;SDS011;35163;48.878;18.040;2023-03-08T14:58:40;19.17;;;9.48;;
49296;SDS011;35163;48.878;18.040;2023-03-08T15:01:09;21.08;;;9.48;;
49296;SDS011;35163;48.878;18.040;2023-03-08T15:03:37;20.83;;;9.65;;
49296;SDS011;35163;48.878;18.040;2023-03-08T15:06:09;22.35;;;9.32;;
49296;SDS011;35163;48.878;18.040;2023-03-08T15:08:39;22.52;;;10.20;;
49296;SDS011;35163;48.878;18.040;2023-03-08T15:11:06;20.45;;;10.27;;
49296;SDS011;35163;48.878;18.040;2023-03-08T15:13:36;18.20;;;8.88;;
49296;SDS011;35163;48.878;18.040;2023-03-08T15:16:02;17.33;;;9.50;;
49296;SDS011;35163;48.878;18.040;2023-03-08T15:18:29;46.33;;;23.85;;
49296;SDS011;35163;48.878;18.040;2023-03-08T15:20:55;30.45;;;14.88;;
49296;SDS011;35163;48.878;18.040;2023-03-08T15:23:23;20.55;;;9.35;;
49296;SDS011;35163;48.878;18.040;2023-03-08T15:25:52;26.48;;;11.10;;
49296;SDS011;35163;48.878;18.040;2023-03-08T15:28:20;32.08;;;15.75;;
49296;SDS011;35163;48.878;18.040;2023-03-08T15:30:48;26.80;;;11.68;;
49296;SDS011;35163;48.878;18.040;2023-03-08T15:33:20;36.70;;;13.38;;
49296;SDS011;35163;48.878;18.040;2023-03-08T15:35:47;19.33;;;9.48;;
49296;SDS011;35163;48.878;18.040;2023-03-08T15:38:16;25.90;;;13.02;;
49296;SDS011;35163;48.878;18.040;2023-03-08T15:40:44;25.70;;;11.80;;
49296;SDS011;35163;48.878;18.040;2023-03-08T15:43:10;24.33;;;11.23;;
49296;SDS011;35163;48.878;18.040;2023-03-08T15:45:37;30.90;;;13.88;;
49296;SDS011;35163;48.878;18.040;2023-03-08T15:48:04;20.77;;;10.30;;